• Join FlightAware (Why Join?)
  • Login
  • US Flag 
03:49PM EDT


 

Airport Tracker/Info


-or-


 

Live Flight TrackerFlight Track Log ✈ UAL139 ✈ 31-Aug-2013 ✈ KDEN - RJAA / NRT

Flight Track Log - Related Links

Times and Time Zones

All times are in EDT time to prevent confusion due to time zone crossing. See the UAL139 flight status page for this flight to view local times or setup timezone preferences in your user account.

Time Position Orientation Groundspeed Altitude Reporting Facility
EDT Latitude Longitude Course Direction KTS MPH feet Rate Location/Type
02:41PM 39.8670 -104.6960 270° West 142 163 5,100  Level FlightAware
02:42PM 39.8840 -104.6960 360° North 204 235 5,200 1,200 Climbing FlightAware
02:42PM 39.9080 -104.6960 360° North 209 241 6,000 1,560 Climbing FlightAware
02:43PM 39.9320 -104.7060 342° North 228 262 6,500 1,020 Climbing FlightAware
02:43PM 39.9370 -104.7160 303° West 237 273 6,600 1,080 Climbing FlightAware
02:43PM 39.9400 -104.7270 290° West 244 281 6,800 1,620 Climbing FlightAware
02:43PM 39.9410 -104.7420 275° West 251 289 7,100 1,140 Climbing FlightAware
02:43PM 39.9400 -104.7820 268° West 276 318 7,500 1,500 Climbing FlightAware
02:44PM 39.9390 -104.8190 268° West 279 321 8,300 1,920 Climbing FlightAware
02:44PM 39.9390 -104.8500 270° West 292 336 8,800 1,980 Climbing FlightAware
02:44PM 39.9380 -104.8930 268° West 295 339 9,700 2,220 Climbing FlightAware
02:45PM 39.9340 -104.9510 265° West 304 350 10,900 1,500 Climbing FlightAware
02:46PM 39.9320 -105.0190 268° West 340 391 11,400 1,200 Climbing FlightAware
02:46PM 39.9340 -105.0970 272° West 359 413 12,400 2,040 Climbing FlightAware
02:47PM 39.9390 -105.1750 275° West 363 418 13,900 2,160 Climbing FlightAware
02:47PM 39.9440 -105.2420 276° West 371 427 14,900 2,040 Climbing FlightAware
02:48PM 39.9490 -105.3200 275° West 374 430 16,200 2,160 Climbing FlightAware
02:48PM 39.9550 -105.3970 276° West 377 434 17,400 1,860 Climbing FlightAware
02:49PM 39.9610 -105.4790 275° West 384 442 18,500 1,860 Climbing FlightAware
02:50PM 39.9670 -105.5640 275° West 388 447 19,700 1,860 Climbing FlightAware
02:50PM 39.9720 -105.6390 275° West 394 453 20,600 1,740 Climbing FlightAware
02:51PM 39.9730 -105.7690 271° West 402 463 22,200 1,740 Climbing FlightAware
02:52PM 39.9720 -105.8530 269° West 408 470 23,200 1,680 Climbing FlightAware
02:52PM 39.9760 -105.9390 274° West 409 471 24,200 1,620 Climbing FlightAware
02:53PM 39.9800 -106.0230 274° West 412 474 25,100 1,320 Climbing FlightAware
02:53PM 39.9850 -106.1140 274° West 420 483 25,800 1,200 Climbing FlightAware
02:54PM 39.9900 -106.1930 275° West 425 489 26,500 1,320 Climbing FlightAware
02:55PM 39.9940 -106.2830 273° West 429 494 27,300 1,260 Climbing FlightAware
02:55PM 39.9990 -106.3620 275° West 430 495 28,000 1,320 Climbing FlightAware
02:56PM 40.0070 -106.4670 276° West 434 499 28,900 1,320 Climbing FlightAware
02:56PM 40.0210 -106.5660 280° West 436 502 29,700 1,200 Climbing FlightAware
02:57PM 40.0320 -106.6470 280° West 439 505 30,300 1,020 Climbing FlightAware
02:58PM 40.0460 -106.7430 281° West 445 512 30,900 960 Climbing FlightAware
02:58PM 40.0590 -106.8370 280° West 449 517 31,500 960 Climbing FlightAware
02:59PM 40.0720 -106.9230 281° West 452 520 32,000 960 Climbing FlightAware
02:59PM 40.0850 -107.0200 280° West 456 525 32,600 900 Climbing FlightAware
03:00PM 40.0990 -107.1180 281° West 458 527 33,100 840 Climbing FlightAware
03:00PM 40.1120 -107.2120 280° West 461 531 33,600 840 Climbing FlightAware
03:01PM 40.1260 -107.3120 280° West 465 535 34,100 900 Climbing FlightAware
03:02PM 40.1380 -107.4010 280° West 463 533 34,700 1,080 Climbing FlightAware
03:02PM 40.1490 -107.4820 280° West 460 529 35,300 1,140 Climbing FlightAware
03:03PM 40.1630 -107.5840 280° West 457 526 36,000 540 Climbing FlightAware
03:03PM 40.1770 -107.6870 280° West 456 525 36,000  Level FlightAware
03:04PM 40.1910 -107.7910 280° West 458 527 36,000  Level FlightAware
03:05PM 40.2030 -107.8880 279° West 457 526 36,000  Level FlightAware
03:05PM 40.2160 -107.9850 280° West 456 525 36,000  Level FlightAware
03:06PM 40.2270 -108.0690 280° West 456 525 36,000  Level FlightAware
03:06PM 40.2420 -108.1840 280° West 456 525 36,000  Level FlightAware
03:07PM 40.2530 -108.2670 280° West 456 525 36,000  Level FlightAware
03:08PM 40.2660 -108.3670 280° West 456 525 36,000  Level FlightAware
03:08PM 40.2800 -108.4810 279° West 455 524 36,000  Level FlightAware
03:09PM 40.2930 -108.5820 280° West 455 524 36,000  Level FlightAware
03:09PM 40.3060 -108.6860 279° West 455 524 36,000  Level FlightAware
03:10PM 40.3200 -108.8000 279° West 454 522 36,000  Level FlightAware
03:10PM 40.3260 -108.8500 279° West 455 524 36,000  Level FlightAware
03:11PM 40.3470 -109.0210 279° West 455 524 36,000  Level FlightAware
03:12PM 40.3600 -109.1250 279° West 456 525 36,000  Level FlightAware
03:13PM 40.3730 -109.2360 279° West 456 525 36,000  Level FlightAware
03:13PM 40.3840 -109.3220 280° West 456 525 36,000  Level FlightAware
03:14PM 40.3970 -109.4330 279° West 456 525 36,000  Level FlightAware
03:15PM 40.4110 -109.5500 279° West 456 525 36,000  Level FlightAware
03:15PM 40.4240 -109.6670 278° West 456 525 36,000  Level FlightAware
03:16PM 40.4340 -109.7580 278° West 456 525 36,000  Level FlightAware
03:17PM 40.4440 -109.8410 279° West 456 525 36,000  Level FlightAware
03:18PM 40.4720 -110.0900 278° West 455 524 36,000  Level FlightAware
03:19PM 40.4820 -110.1730 279° West 456 525 36,000  Level FlightAware
03:19PM 40.4892 -110.2400 278° West 36,000  Level FlightAware ADS-B
03:19PM 40.4902 -110.2480 279° West 456 525 36,000  Level FlightAware ADS-B
03:19PM 40.4992 -110.3310 278° West 456 525 36,000  Level FlightAware ADS-B
03:20PM 40.5083 -110.4130 278° West 457 526 36,000  Level FlightAware ADS-B
03:20PM 40.5173 -110.4960 278° West 457 526 36,000  Level FlightAware ADS-B
03:21PM 40.5276 -110.5900 278° West 457 526 36,000  Level FlightAware ADS-B
03:22PM 40.5363 -110.6720 278° West 453 521 36,000  Level FlightAware ADS-B
03:22PM 40.5451 -110.7550 278° West 451 519 36,000  Level FlightAware ADS-B
03:23PM 40.5541 -110.8400 278° West 450 518 36,000  Level FlightAware ADS-B
03:23PM 40.5627 -110.9210 278° West 450 518 36,000  Level FlightAware ADS-B
03:24PM 40.5716 -111.0070 278° West 454 522 36,000  Level FlightAware ADS-B
03:24PM 40.5802 -111.0900 278° West 452 520 36,000  Level FlightAware ADS-B
03:25PM 40.5885 -111.1710 278° West 450 518 36,000  Level FlightAware ADS-B
03:25PM 40.5974 -111.2580 278° West 453 521 36,000  Level FlightAware ADS-B
03:26PM 40.6059 -111.3420 278° West 453 521 36,000  Level FlightAware ADS-B
03:26PM 40.6143 -111.4250 278° West 452 520 36,000  Level FlightAware ADS-B
03:27PM 40.6224 -111.5070 277° West 452 520 36,000  Level FlightAware ADS-B
03:27PM 40.6306 -111.5890 278° West 452 520 36,000  Level FlightAware ADS-B
03:28PM 40.6387 -111.6720 277° West 453 521 36,000  Level FlightAware ADS-B
03:28PM 40.6468 -111.7550 277° West 455 524 36,000  Level FlightAware ADS-B
03:29PM 40.6548 -111.8370 277° West 456 525 36,000  Level FlightAware ADS-B
03:29PM 40.6629 -111.9210 277° West 456 525 36,000  Level FlightAware ADS-B
03:30PM 40.6708 -112.0040 277° West 455 524 36,000  Level FlightAware ADS-B
03:30PM 40.6787 -112.0880 277° West 454 522 36,000  Level FlightAware ADS-B
03:31PM 40.6870 -112.1750 277° West 453 521 36,000  Level FlightAware ADS-B
03:31PM 40.6947 -112.2590 277° West 454 522 36,000  Level FlightAware ADS-B
03:32PM 40.7027 -112.3450 277° West 454 522 36,000  Level FlightAware ADS-B
03:32PM 40.7104 -112.4290 277° West 454 522 36,000  Level FlightAware ADS-B
03:33PM 40.7161 -112.4930 277° West 452 520 36,000  Level FlightAware ADS-B
03:33PM 40.7200 -112.5760 274° West 450 518 36,000  Level FlightAware ADS-B
03:34PM 40.7209 -112.6710 271° West 450 518 36,000  Level FlightAware ADS-B
03:34PM 40.7217 -112.7560 271° West 451 519 36,000  Level FlightAware ADS-B
03:35PM 40.7224 -112.8390 271° West 451 519 36,000  Level FlightAware ADS-B
03:35PM 40.7231 -112.9220 271° West 451 519 36,000  Level FlightAware ADS-B
03:36PM 40.7239 -113.0400 271° West 452 520 36,000  Level FlightAware ADS-B
03:37PM 40.7244 -113.1340 270° West 453 521 36,000  Level FlightAware ADS-B
03:37PM 40.7249 -113.2230 270° West 455 524 36,000  Level FlightAware ADS-B
03:38PM 40.7252 -113.3060 270° West 455 524 36,000  Level FlightAware ADS-B
03:38PM 40.7255 -113.3900 270° West 454 522 36,000  Level FlightAware ADS-B
03:39PM 40.7257 -113.4750 270° West 454 522 36,000  Level FlightAware ADS-B
03:39PM 40.7259 -113.5580 270° West 453 521 36,000  Level FlightAware ADS-B
03:40PM 40.7261 -113.6490 270° West 451 519 36,000  Level FlightAware ADS-B
03:40PM 40.7264 -113.7150 270° West 450 518 36,000  Level FlightAware ADS-B
03:40PM 40.7281 -113.7430 275° West 451 519 36,000  Level FlightAware ADS-B
03:40PM 40.7314 -113.7730 278° West 451 519 36,000  Level FlightAware ADS-B
03:41PM 40.7356 -113.7990 282° West 451 519 36,000  Level FlightAware ADS-B
03:41PM 40.7529 -113.8790 286° West 451 519 36,000  Level FlightAware ADS-B
03:42PM 40.7707 -113.9610 286° West 451 519 36,000 240 Level FlightAware ADS-B
03:42PM 40.7894 -114.0470 286° West 451 519 36,300 720 Climbing FlightAware ADS-B
03:43PM 40.8067 -114.1270 286° West 449 517 36,800 840 Climbing FlightAware ADS-B
03:43PM 40.8238 -114.2060 286° West 449 517 37,200 660 Climbing FlightAware ADS-B
03:44PM 40.8408 -114.2850 286° West 450 518 37,500 600 Climbing FlightAware ADS-B
03:44PM 40.8612 -114.3800 286° West 450 518 37,900 420 Climbing FlightAware ADS-B
03:45PM 40.8798 -114.4680 286° West 451 519 38,000 60 Climbing FlightAware ADS-B
03:45PM 40.8969 -114.5480 286° West 451 519 38,000  Level FlightAware ADS-B
03:46PM 40.9137 -114.6270 286° West 450 518 38,000  Level FlightAware ADS-B
03:46PM 40.9306 -114.7080 285° West 449 517 38,000  Level FlightAware ADS-B
03:47PM 40.9473 -114.7870 286° West 449 517 38,000 -360 Level FlightAware ADS-B
03:48PM 40.9460 -114.8050 265° West 449 517 37,600 -360 Descending FlightAware
03:48PM 40.9630 -114.8860 286° West 449 517 37,600  Level FlightAware
03:49PM 40.9790 -114.9670 285° West 449 517 37,600 300 Level FlightAware
03:49PM 41.0277 -115.1740 287° West 453 521 38,000 360 Climbing FlightAware ADS-B
03:50PM 41.0443 -115.2550 285° West 453 521 38,000  Level FlightAware ADS-B
03:50PM 41.0607 -115.3350 285° West 453 521 38,000  Level FlightAware ADS-B
03:51PM 41.0801 -115.4300 285° West 454 522 38,000  Level FlightAware ADS-B
03:52PM 41.1160 -115.6110 285° West 453 521 38,000  Level FlightAware
03:53PM 41.1310 -115.6920 284° West 453 521 38,000  Level FlightAware
03:53PM 41.1460 -115.7700 284° West 453 521 38,000  Level FlightAware
03:54PM 41.1620 -115.8550 284° West 453 521 38,000  Level FlightAware
03:54PM 41.1910 -115.9820 287° West 454 522 38,000  Level FlightAware
03:55PM 41.2120 -116.0950 284° West 454 522 38,000  Level FlightAware
03:56PM 41.2290 -116.1850 284° West 454 522 38,000  Level FlightAware
03:56PM 41.2510 -116.2900 286° West 454 522 38,000  Level FlightAware
03:57PM 41.2720 -116.3970 285° West 454 522 38,000  Level FlightAware
03:58PM 41.2910 -116.5000 284° West 454 522 38,000  Level FlightAware
03:58PM 41.3090 -116.5940 284° West 454 522 38,000  Level FlightAware
03:59PM 41.3300 -116.7060 284° West 454 522 38,000  Level FlightAware
03:59PM 41.3490 -116.8050 284° West 453 521 38,000  Level FlightAware
04:00PM 41.3670 -116.9010 284° West 453 521 38,000  Level FlightAware
04:01PM 41.3850 -116.9990 284° West 453 521 38,000  Level FlightAware
04:01PM 41.4000 -117.0830 283° West 453 521 38,000  Level FlightAware
04:02PM 41.4190 -117.1820 284° West 453 521 38,000  Level FlightAware
04:02PM 41.4350 -117.2740 283° West 453 521 38,000  Level FlightAware
04:03PM 41.4500 -117.3570 284° West 453 521 38,000  Level FlightAware
04:03PM 41.4690 -117.4580 284° West 453 521 38,000  Level FlightAware
04:04PM 41.4860 -117.5550 283° West 452 520 38,000  Level FlightAware
04:05PM 41.5030 -117.6480 284° West 453 521 38,000  Level FlightAware
04:05PM 41.5190 -117.7390 283° West 452 520 38,000  Level FlightAware
04:06PM 41.5370 -117.8370 284° West 452 520 38,000  Level FlightAware
04:06PM 41.5540 -117.9380 283° West 450 518 38,000  Level FlightAware
04:07PM 41.5710 -118.0310 284° West 450 518 38,000  Level FlightAware
04:08PM 41.5880 -118.1290 283° West 450 518 38,000  Level FlightAware
04:08PM 41.6050 -118.2280 283° West 450 518 38,000  Level FlightAware
04:09PM 41.6200 -118.3130 283° West 451 519 38,000  Level FlightAware
04:09PM 41.6350 -118.4010 283° West 451 519 38,000  Level FlightAware
04:10PM 41.6500 -118.4910 283° West 451 519 38,000  Level FlightAware
04:10PM 41.6690 -118.6030 283° West 450 518 38,000  Level FlightAware
04:11PM 41.6850 -118.6960 283° West 450 518 38,000  Level FlightAware
04:12PM 41.7020 -118.7970 283° West 449 517 38,000  Level FlightAware
04:12PM 41.7150 -118.8750 283° West 449 517 38,000  Level FlightAware
04:13PM 41.7280 -118.9510 283° West 449 517 38,000  Level FlightAware
04:13PM 41.7440 -119.0510 282° West 448 516 38,000  Level FlightAware
04:14PM 41.7580 -119.1330 283° West 448 516 38,000  Level FlightAware
04:15PM 41.7790 -119.2590 283° West 447 514 38,000  Level FlightAware
04:15PM 41.7940 -119.3520 282° West 448 516 38,000  Level FlightAware
04:16PM 41.8070 -119.4350 282° West 447 514 38,000  Level FlightAware
04:16PM 41.8250 -119.5480 282° West 448 516 38,000  Level FlightAware
04:17PM 41.8380 -119.6290 282° West 448 516 38,000  Level FlightAware
04:17PM 41.8540 -119.7270 282° West 448 516 38,000  Level FlightAware
04:18PM 41.8690 -119.8230 282° West 450 518 38,000  Level FlightAware
04:19PM 41.8840 -119.9140 283° West 451 519 38,000  Level FlightAware
04:19PM 41.8980 -120.0050 282° West 451 519 38,000  Level FlightAware
04:20PM 41.9140 -120.1060 282° West 450 518 38,000  Level FlightAware
04:20PM 41.9280 -120.1970 282° West 448 516 38,000  Level FlightAware
04:21PM 41.9440 -120.3040 281° West 448 516 38,000  Level FlightAware
04:22PM 41.9580 -120.3930 282° West 448 516 38,000  Level FlightAware
04:22PM 41.9720 -120.4880 281° West 449 517 38,000  Level FlightAware
04:23PM 41.9870 -120.5860 282° West 449 517 38,000  Level FlightAware
04:23PM 42.0030 -120.6940 281° West 450 518 38,000  Level FlightAware
04:24PM 42.0180 -120.7910 282° West 451 519 38,000  Level FlightAware
04:25PM 42.0310 -120.8810 281° West 452 520 38,000  Level FlightAware
04:25PM 42.0480 -120.9990 281° West 449 517 38,000  Level FlightAware
04:26PM 42.0650 -121.1110 282° West 449 517 38,000  Level FlightAware
04:27PM 42.0820 -121.2280 281° West 448 516 38,000  Level FlightAware
04:27PM 42.0960 -121.3270 281° West 448 516 38,000  Level FlightAware
04:28PM 42.1150 -121.4570 281° West 450 518 38,000  Level FlightAware
04:29PM 42.1300 -121.5660 281° West 449 517 38,000  Level FlightAware
04:29PM 42.1440 -121.6630 281° West 448 516 38,000  Level FlightAware
04:30PM 42.1610 -121.7820 281° West 449 517 38,000  Level FlightAware
04:31PM 42.1740 -121.8710 281° West 449 517 38,000  Level FlightAware
04:31PM 42.1750 -121.8780 281° West 449 517 38,000  Level FlightAware
04:32PM 42.2040 -122.0740 281° West 452 520 38,000  Level FlightAware
04:32PM 42.2170 -122.1700 280° West 452 520 38,000  Level FlightAware
04:33PM 42.2330 -122.2830 281° West 451 519 38,000  Level FlightAware
04:34PM 42.2480 -122.3830 281° West 454 522 38,000  Level FlightAware
04:34PM 42.2630 -122.4940 280° West 454 522 38,000  Level FlightAware
04:35PM 42.2740 -122.5740 281° West 453 521 38,000  Level FlightAware
04:35PM 42.2890 -122.6780 281° West 453 521 38,000  Level FlightAware
04:36PM 42.3030 -122.7790 281° West 452 520 38,000  Level FlightAware
04:37PM 42.3160 -122.8720 281° West 454 522 38,000  Level FlightAware
04:37PM 42.3320 -122.9940 280° West 454 522 38,000  Level FlightAware
04:38PM 42.3460 -123.0960 281° West 453 521 38,000  Level FlightAware
04:39PM 42.3600 -123.1980 281° West 453 521 38,000  Level FlightAware
04:39PM 42.3700 -123.2770 280° West 453 521 38,000  Level FlightAware
04:40PM 42.3840 -123.3860 280° West 454 522 38,000  Level FlightAware
04:40PM 42.3960 -123.4740 280° West 454 522 38,000  Level FlightAware
04:41PM 42.3930 -123.4500 100° East 454 522 38,000  Level FlightAware
04:41PM 42.4030 -123.5310 280° West 454 522 38,000  Level FlightAware
04:42PM 42.4140 -123.6170 280° West 454 522 38,000  Level FlightAware
04:43PM 42.4250 -123.6980 280° West 454 522 38,000  Level FlightAware
04:43PM 42.4360 -123.7830 280° West 454 522 38,000  Level FlightAware
04:44PM 42.4480 -123.8710 280° West 454 522 38,000  Level FlightAware
04:44PM 42.4580 -123.9550 279° West 454 522 38,000  Level FlightAware
04:45PM 42.4700 -124.0410 281° West 454 522 38,000  Level FlightAware
04:46PM 42.4810 -124.1290 280° West 454 522 38,000  Level FlightAware
04:46PM 42.4960 -124.2410 280° West 454 522 38,000  Level FlightAware
04:47PM 42.5070 -124.3320 279° West 454 522 38,000  Level FlightAware
04:48PM 42.5190 -124.4200 281° West 454 522 38,000  Level FlightAware
04:48PM 42.5290 -124.5010 280° West 454 522 38,000  Level FlightAware
04:49PM 42.5410 -124.5870 281° West 454 522 38,000  Level FlightAware
04:49PM 42.5870 -125.0140 278° West 447 514 38,000  Level FlightAware
04:50PM 42.5960 -125.0980 278° West 447 514 38,000  Level FlightAware
04:51PM 42.6070 -125.2090 278° West 447 514 38,000  Level FlightAware
04:51PM 42.6160 -125.2990 278° West 447 514 38,000  Level FlightAware
04:52PM 42.6280 -125.4100 278° West 447 514 38,000  Level FlightAware
04:53PM 42.6370 -125.4950 278° West 447 514 38,000  Level FlightAware
04:54PM 42.6480 -125.6060 278° West 447 514 38,000  Level FlightAware
04:54PM 42.6570 -125.6910 278° West 447 514 38,000  Level FlightAware
04:55PM 42.6660 -125.7790 278° West 447 514 38,000  Level FlightAware
04:55PM 42.6760 -125.8710 278° West 447 514 38,000  Level FlightAware
04:56PM 42.6840 -125.9570 277° West 447 514 38,000  Level FlightAware
04:57PM 42.6940 -126.0490 278° West 447 514 38,000  Level FlightAware
04:57PM 42.7030 -126.1340 278° West 447 514 38,000  Level FlightAware
04:58PM 42.7120 -126.2240 278° West 447 514 38,000  Level FlightAware
04:59PM 42.7210 -126.3090 278° West 447 514 38,000  Level FlightAware
04:59PM 42.7300 -126.3950 278° West 447 514 38,000  Level FlightAware
05:00PM 42.9167 -126.7167 298° West 465 535 38,000  Level Oakland Oceanic (ODAPS)
05:03PM 43.0833 -127.1500 297° West 465 535 38,000  Level Oakland Oceanic (ODAPS)
05:04PM 43.0431 -127.0512 297° West  Level FlightAware Approximate
05:04PM 43.1333 -127.2833 297° West 462 532 38,000  Level Oakland Oceanic (ODAPS)
05:05PM 43.1025 -127.2097 297° West  Level FlightAware Approximate
05:06PM 43.2642 -127.6369 297° West 465 535 38,000  Level FlightAware Transoceanic
05:07PM 43.3214 -127.7913 297° West 465 535 38,000  Level FlightAware Transoceanic
05:08PM 43.3784 -127.9460 297° West 465 535 38,000  Level FlightAware Transoceanic
05:09PM 43.4300 -128.0838 297° West 465 535 38,000  Level FlightAware Transoceanic
05:10PM 43.4817 -128.2264 297° West 462 532 38,000  Level FlightAware Transoceanic
05:11PM 43.5391 -128.3846 296° West 462 532 38,000  Level FlightAware Transoceanic
05:11PM 43.5500 -128.4000 296° West 469 540 38,000  Level Oakland Oceanic (ODAPS)
05:12PM 43.5961 -128.5431 296° West 462 532 38,000  Level FlightAware Transoceanic
05:13PM 43.6530 -128.7019 296° West 462 532 38,000  Level FlightAware Transoceanic
05:14PM 43.7097 -128.8611 296° West 462 532 38,000  Level FlightAware Transoceanic
05:15PM 43.7661 -129.0205 296° West 462 532 38,000  Level FlightAware Transoceanic
05:16PM 43.8223 -129.1802 296° West 462 532 38,000  Level FlightAware Transoceanic
05:17PM 43.8826 -129.3465 296° West 469 540 38,000  Level FlightAware Transoceanic
05:18PM 43.9373 -129.5053 295° West 469 540 38,000  Level FlightAware Transoceanic
05:18PM 43.9333 -129.5167 297° West 471 542 38,000  Level Oakland Oceanic (ODAPS)
05:19PM 43.9918 -129.6643 295° West 469 540 38,000  Level FlightAware Transoceanic
05:20PM 44.0460 -129.8237 295° West 469 540 38,000  Level FlightAware Transoceanic
05:20PM 44.1000 -129.9833 296° West 481 554 38,000  Level Oakland Oceanic (ODAPS)
05:21PM 44.1000 -129.9833 296° West 469 540 38,000  Level FlightAware Transoceanic
05:22PM 44.1592 -130.1530 296° West 469 540 38,000  Level FlightAware Transoceanic
05:23PM 44.2182 -130.3230 296° West 469 540 38,000  Level FlightAware Transoceanic
05:24PM 44.2769 -130.4934 296° West 471 542 38,000  Level FlightAware Transoceanic
05:25PM 44.3353 -130.6641 296° West 471 542 38,000  Level FlightAware Transoceanic
05:26PM 44.3935 -130.8351 295° West 471 542 38,000  Level FlightAware Transoceanic
05:27PM 44.4454 -130.9884 295° West 481 554 38,000  Level FlightAware Transoceanic
05:28PM 44.5021 -131.1571 295° West 481 554 38,000  Level FlightAware Transoceanic
05:29PM 44.5586 -131.3260 295° West 481 554 38,000  Level FlightAware Transoceanic
05:30PM 44.6148 -131.4954 295° West 481 554 38,000  Level FlightAware Transoceanic
05:31PM 44.6707 -131.6650 295° West 481 554 38,000  Level FlightAware Transoceanic
05:31PM 44.7333 -131.8500 295° West 492 566 38,000  Level Oakland Oceanic (ODAPS)
05:32PM 44.7264 -131.8350 295° West 481 554 38,000  Level FlightAware Transoceanic
05:33PM 44.7819 -132.0053 295° West 481 554 38,000  Level FlightAware Transoceanic
05:34PM 44.8371 -132.1759 294° West 481 554 38,000  Level FlightAware Transoceanic
05:35PM 44.8920 -132.3468 294° West 481 554 38,000  Level FlightAware Transoceanic
05:36PM 44.9467 -132.5181 294° West 481 554 38,000  Level FlightAware Transoceanic
05:37PM 45.0011 -132.6897 294° West 481 554 38,000  Level FlightAware Transoceanic
05:38PM 45.0684 -132.8978 294° West 492 566 38,000  Level FlightAware Transoceanic
05:39PM 45.1233 -133.0736 294° West 492 566 38,000  Level FlightAware Transoceanic
05:40PM 45.1779 -133.2498 294° West 492 566 38,000  Level FlightAware Transoceanic
05:41PM 45.2323 -133.4263 294° West 492 566 38,000  Level FlightAware Transoceanic
05:42PM 45.2864 -133.6031 293° West 492 566 38,000  Level FlightAware Transoceanic
05:43PM 45.3402 -133.7803 293° West 492 566 38,000  Level FlightAware Transoceanic
05:44PM 45.3937 -133.9578 293° West 492 566 38,000  Level FlightAware Transoceanic
05:45PM 45.4470 -134.1356 293° West 492 566 38,000  Level FlightAware Transoceanic
05:45PM 45.5000 -134.3333 293° West 501 577 38,000  Level Oakland Oceanic (ODAPS)
05:46PM 45.5000 -134.3138 293° West 492 566 38,000  Level FlightAware Transoceanic
05:47PM 45.5527 -134.4923 293° West 492 566 38,000  Level FlightAware Transoceanic
05:48PM 45.6051 -134.6712 293° West 492 566 38,000  Level FlightAware Transoceanic
05:49PM 45.6573 -134.8503 293° West 492 566 38,000  Level FlightAware Transoceanic
05:50PM 45.7092 -135.0298 292° West 492 566 38,000  Level FlightAware Transoceanic
05:51PM 45.7608 -135.2097 292° West 492 566 38,000  Level FlightAware Transoceanic
05:52PM 45.8222 -135.4417 292° West 501 577 38,000  Level FlightAware Transoceanic
05:53PM 45.8748 -135.6276 292° West 501 577 38,000  Level FlightAware Transoceanic
05:54PM 45.9272 -135.8139 292° West 501 577 38,000  Level FlightAware Transoceanic
05:55PM 45.9792 -136.0006 292° West 501 577 38,000  Level FlightAware Transoceanic
05:56PM 46.0309 -136.1876 292° West 501 577 38,000  Level FlightAware Transoceanic
05:57PM 46.0824 -136.3750 292° West 501 577 38,000  Level FlightAware Transoceanic
05:58PM 46.1335 -136.5627 291° West 501 577 38,000  Level FlightAware Transoceanic
05:59PM 46.1843 -136.7507 291° West 501 577 38,000  Level FlightAware Transoceanic
05:59PM 46.2333 -136.9167 291° West 495 570 38,000  Level Oakland Oceanic (ODAPS)
06:00PM 46.2348 -136.9391 291° West 501 577 38,000  Level FlightAware Transoceanic
06:01PM 46.2850 -137.1279 291° West 501 577 38,000  Level FlightAware Transoceanic
06:02PM 46.3349 -137.3170 291° West 501 577 38,000  Level FlightAware Transoceanic
06:03PM 46.3845 -137.5064 291° West 501 577 38,000  Level FlightAware Transoceanic
06:04PM 46.4337 -137.6962 291° West 501 577 38,000  Level FlightAware Transoceanic
06:05PM 46.5134 -137.9949 290° West 495 570 38,000  Level FlightAware Transoceanic
06:06PM 46.5590 -138.1757 290° West 495 570 38,000  Level FlightAware Transoceanic
06:07PM 46.6044 -138.3568 290° West 495 570 38,000  Level FlightAware Transoceanic
06:08PM 46.6495 -138.5381 290° West 495 570 38,000  Level FlightAware Transoceanic
06:09PM 46.6944 -138.7198 290° West 495 570 38,000  Level FlightAware Transoceanic
06:10PM 46.7389 -138.9018 290° West 495 570 38,000  Level FlightAware Transoceanic
06:11PM 46.7831 -139.0841 289° West 495 570 38,000  Level FlightAware Transoceanic
06:12PM 46.8271 -139.2667 289° West 495 570 38,000  Level FlightAware Transoceanic
06:13PM 46.8708 -139.4496 289° West 495 570 38,000  Level FlightAware Transoceanic
06:13PM 46.8833 -139.5000 289° West 486 559 38,000  Level Oakland Oceanic (ODAPS)
06:14PM 46.9141 -139.6328 289° West 495 570 38,000  Level FlightAware Transoceanic
06:15PM 46.9572 -139.8162 289° West 495 570 38,000  Level FlightAware Transoceanic
06:16PM 47.0000 -140.0000 265° West 495 570 38,000  Level FlightAware Transoceanic
06:16PM 47.0000 -140.0000 265° West 490 564 38,000  Level Oakland Oceanic (ODAPS)
06:17PM 46.9893 -140.1916 265° West 495 570 38,000  Level FlightAware Transoceanic
06:18PM 46.9783 -140.3832 265° West 495 570 38,000  Level FlightAware Transoceanic
06:19PM 46.9669 -140.5747 265° West 486 559 38,000  Level FlightAware Transoceanic
06:20PM 46.9552 -140.7661 265° West 486 559 38,000  Level FlightAware Transoceanic
06:21PM 46.9433 -140.9574 265° West 486 559 38,000  Level FlightAware Transoceanic
06:22PM 46.9321 -141.0802 265° West  Level FlightAware Approximate
06:23PM 46.9194 -141.2656 264° West  Level FlightAware Approximate
06:24PM 46.9064 -141.4509 264° West  Level FlightAware Approximate
06:25PM 46.8931 -141.6362 264° West  Level FlightAware Approximate
06:26PM 46.8796 -141.8213 264° West  Level FlightAware Approximate
06:27PM 46.8657 -142.0064 264° West  Level FlightAware Approximate
06:27PM 46.8500 -142.2333 264° West 484 557 38,000  Level Oakland Oceanic (ODAPS)
06:28PM 46.8515 -142.1913 264° West  Level FlightAware Approximate
06:29PM 46.8370 -142.3762 264° West  Level FlightAware Approximate
06:30PM 46.8222 -142.5609 263° West  Level FlightAware Approximate
06:31PM 46.8071 -142.7456 263° West  Level FlightAware Approximate
06:32PM 46.7917 -142.9301 263° West  Level FlightAware Approximate
06:33PM 47.0787 -143.2355 289° West  Level Estimated
06:34PM 47.1181 -143.4133 288° West  Level Estimated
06:35PM 47.1573 -143.5913 288° West  Level Estimated
06:36PM 47.1962 -143.7696 288° West  Level Estimated
06:37PM 47.2348 -143.9481 288° West  Level Estimated
06:38PM 47.2731 -144.1269 288° West  Level Estimated
06:39PM 47.3112 -144.3059 287° West  Level Estimated
06:40PM 47.3490 -144.4852 287° West  Level Estimated
06:41PM 47.3865 -144.6648 287° West  Level Estimated
06:41PM 46.6333 -144.8667 262° West 471 542 38,000  Level Oakland Oceanic (ODAPS)
06:42PM 47.4237 -144.8446 287° West  Level Estimated
06:43PM 47.4606 -145.0247 287° West  Level Estimated
06:44PM 47.4973 -145.2050 287° West  Level Estimated
06:45PM 47.5337 -145.3856 287° West  Level Estimated
06:46PM 47.5698 -145.5664 287° West  Level Estimated
06:47PM 46.5223 -145.9283 262° West  Level FlightAware Approximate
06:48PM 46.5022 -146.1109 261° West  Level FlightAware Approximate
06:49PM 46.4818 -146.2934 261° West  Level FlightAware Approximate
06:50PM 46.4610 -146.4757 261° West  Level FlightAware Approximate
06:51PM 46.4400 -146.6579 261° West  Level FlightAware Approximate
06:52PM 46.4188 -146.8399 260° West  Level FlightAware Approximate
06:53PM 46.3972 -147.0218 260° West  Level FlightAware Approximate
06:54PM 46.3753 -147.2036 260° West  Level FlightAware Approximate
06:55PM 46.3531 -147.3852 260° West  Level FlightAware Approximate
06:55PM 46.3500 -147.3500 260° West 452 520 38,000  Level Oakland Oceanic (ODAPS)
06:56PM 46.3307 -147.5666 260° West  Level FlightAware Approximate
06:57PM 46.3080 -147.7480 260° West  Level FlightAware Approximate
06:58PM 46.2850 -147.9291 260° West  Level FlightAware Approximate
06:59PM 46.2617 -148.1101 260° West  Level FlightAware Approximate
07:00PM 46.2381 -148.2910 259° West  Level FlightAware Approximate
07:01PM 46.2139 -148.4403 260° West  Level FlightAware Approximate
07:02PM 46.1901 -148.6230 259° West  Level FlightAware Approximate
07:03PM 46.1659 -148.8056 259° West  Level FlightAware Approximate
07:04PM 46.1414 -148.9880 259° West  Level FlightAware Approximate
07:05PM 46.1167 -149.1702 259° West  Level FlightAware Approximate
07:06PM 46.0916 -149.3522 259° West  Level FlightAware Approximate
07:07PM 46.0663 -149.5341 259° West  Level FlightAware Approximate
07:08PM 46.0407 -149.7159 259° West  Level FlightAware Approximate
07:08PM 46.0333 -149.8167 255° West 447 514 38,800  Level Oakland Oceanic (ODAPS)
07:09PM 46.0148 -149.8974 258° West  Level FlightAware Approximate
07:10PM 45.9954 -150.0802 265° West  Level FlightAware Approximate
07:10PM 46.0000 -150.0000 265° West 445 512 40,000  Level Oakland Oceanic (ODAPS)
07:11PM 45.9846 -150.2648 265° West  Level FlightAware Approximate
07:12PM 45.9735 -150.4493 265° West  Level FlightAware Approximate
07:13PM 45.9621 -150.6337 265° West  Level FlightAware Approximate
07:14PM 45.9504 -150.8181 265° West  Level FlightAware Approximate
07:15PM 45.9607 -150.9387 265° West  Level FlightAware Approximate
07:16PM 45.9323 -151.0942 265° West  Level FlightAware Approximate
07:17PM 45.9198 -151.2784 265° West  Level FlightAware Approximate
07:18PM 45.9071 -151.4624 264° West  Level FlightAware Approximate
07:19PM 45.8941 -151.6464 264° West  Level FlightAware Approximate
07:20PM 45.8807 -151.8303 264° West  Level FlightAware Approximate
07:21PM 45.8671 -152.0141 264° West  Level FlightAware Approximate
07:22PM 45.8532 -152.1978 264° West  Level FlightAware Approximate
07:22PM 45.8500 -152.2000 264° West 449 517 40,000  Level Oakland Oceanic (ODAPS)
07:23PM 45.8390 -152.3814 264° West  Level FlightAware Approximate
07:24PM 45.8245 -152.5649 264° West  Level FlightAware Approximate
07:25PM 45.8097 -152.7484 263° West  Level FlightAware Approximate
07:26PM 45.7946 -152.9317 263° West  Level FlightAware Approximate
07:27PM 45.7792 -153.1149 263° West  Level FlightAware Approximate
07:28PM 46.0059 -153.1388 284° West  Level Estimated
07:29PM 46.0349 -153.3194 283° West  Level Estimated
07:30PM 46.0636 -153.5001 283° West  Level Estimated
07:31PM 46.0920 -153.6811 283° West  Level Estimated
07:32PM 46.1201 -153.8622 283° West  Level Estimated
07:33PM 46.1480 -154.0435 283° West  Level Estimated
07:34PM 46.1756 -154.2250 282° West  Level Estimated
07:35PM 46.2029 -154.4066 282° West  Level Estimated
07:36PM 46.2298 -154.5885 282° West  Level Estimated
07:36PM 45.6500 -154.6333 262° West 451 519 40,000  Level Oakland Oceanic (ODAPS)
07:37PM 46.2565 -154.7705 282° West  Level Estimated
07:38PM 46.2830 -154.9527 282° West  Level Estimated
07:39PM 46.3091 -155.1351 282° West  Level Estimated
07:40PM 46.3349 -155.3177 282° West  Level Estimated
07:41PM 46.3605 -155.5004 282° West  Level Estimated
07:42PM 45.5426 -155.6044 262° West  Level FlightAware Approximate
07:43PM 45.5237 -155.7859 262° West  Level FlightAware Approximate
07:44PM 45.5049 -155.9632 261° West  Level FlightAware Approximate
07:45PM 45.4859 -156.1404 261° West  Level FlightAware Approximate
07:46PM 45.4667 -156.3174 261° West  Level FlightAware Approximate
07:47PM 45.4471 -156.4943 261° West  Level FlightAware Approximate
07:48PM 45.4273 -156.6711 261° West  Level FlightAware Approximate
07:49PM 45.4072 -156.8478 261° West  Level FlightAware Approximate
07:50PM 45.3868 -157.0243 261° West  Level FlightAware Approximate
07:50PM 45.3833 -157.0500 261° West 450 518 40,000  Level Oakland Oceanic (ODAPS)
07:51PM 45.3662 -157.2007 261° West  Level FlightAware Approximate
07:52PM 45.3453 -157.3770 260° West  Level FlightAware Approximate
07:53PM 45.3241 -157.5531 260° West  Level FlightAware Approximate
07:54PM 45.3026 -157.7292 260° West  Level FlightAware Approximate
07:55PM 45.2809 -157.9050 260° West  Level FlightAware Approximate
07:56PM 45.5143 -158.0110 281° West  Level Estimated
07:57PM 45.5374 -158.1872 281° West  Level Estimated
07:58PM 45.5602 -158.3636 281° West  Level Estimated
07:59PM 45.5827 -158.5402 280° West  Level Estimated
08:00PM 45.6050 -158.7168 280° West  Level Estimated
08:01PM 45.6270 -158.8937 280° West  Level Estimated
08:02PM 45.6487 -159.0706 280° West  Level Estimated
08:03PM 45.6702 -159.2477 280° West  Level Estimated
08:04PM 45.6913 -159.4250 280° West  Level Estimated
08:04PM 45.0667 -159.5000 259° West 455 524 40,000  Level Oakland Oceanic (ODAPS)
08:05PM 45.7122 -159.6024 280° West  Level Estimated
08:06PM 45.7329 -159.7798 280° West  Level Estimated
08:07PM 45.7532 -159.9575 279° West  Level Estimated
08:07PM 45.0000 -160.0000 274° West 468 539 40,000  Level Oakland Oceanic (ODAPS)
08:08PM 45.7733 -160.1352 279° West  Level Estimated
08:09PM 45.7931 -160.3131 279° West  Level Estimated
08:10PM 45.0233 -160.5648 273° West 455 524 40,000  Level FlightAware Transoceanic
08:11PM 45.0305 -160.7532 273° West 455 524 40,000  Level FlightAware Transoceanic
08:12PM 45.0373 -160.9416 273° West 455 524 40,000  Level FlightAware Transoceanic
08:13PM 45.0424 -161.0890 273° West 468 539 40,000  Level FlightAware Transoceanic
08:14PM 45.0485 -161.2706 273° West 468 539 40,000  Level FlightAware Transoceanic
08:15PM 45.0543 -161.4523 273° West 468 539 40,000  Level FlightAware Transoceanic
08:16PM 45.0598 -161.6340 272° West 468 539 40,000  Level FlightAware Transoceanic
08:17PM 45.0650 -161.8158 272° West 468 539 40,000  Level FlightAware Transoceanic
08:18PM 45.0699 -161.9975 272° West 468 539 40,000  Level FlightAware Transoceanic
08:18PM 45.0667 -161.9833 272° West 474 545 40,000  Level Oakland Oceanic (ODAPS)
08:19PM 45.0745 -162.1794 272° West 468 539 40,000  Level FlightAware Transoceanic
08:20PM 45.0788 -162.3612 272° West 468 539 40,000  Level FlightAware Transoceanic
08:21PM 45.0829 -162.5431 272° West 468 539 40,000  Level FlightAware Transoceanic
08:22PM 45.0866 -162.7250 272° West 468 539 40,000  Level FlightAware Transoceanic
08:23PM 45.0901 -162.9069 271° West 468 539 40,000  Level FlightAware Transoceanic
08:24PM 45.0911 -163.1019 271° West 474 545 40,000  Level FlightAware Transoceanic
08:25PM 45.0941 -163.2884 271° West 474 545 40,000  Level FlightAware Transoceanic
08:26PM 45.0968 -163.4750 271° West 474 545 40,000  Level FlightAware Transoceanic
08:27PM 45.0992 -163.6615 271° West 474 545 40,000  Level FlightAware Transoceanic
08:28PM 45.1013 -163.8481 271° West 474 545 40,000  Level FlightAware Transoceanic
08:29PM 45.1031 -164.0347 271° West 474 545 40,000  Level FlightAware Transoceanic
08:30PM 45.1045 -164.2213 271° West 474 545 40,000  Level FlightAware Transoceanic
08:31PM 45.1057 -164.4079 270° West 474 545 40,000  Level FlightAware Transoceanic
08:32PM 45.1066 -164.5945 270° West 474 545 40,000  Level FlightAware Transoceanic
08:32PM 45.1000 -164.5167 270° West 475 547 40,000  Level Oakland Oceanic (ODAPS)
08:33PM 45.1072 -164.7811 270° West 474 545 40,000  Level FlightAware Transoceanic
08:34PM 45.1074 -164.9677 270° West 474 545 40,000  Level FlightAware Transoceanic
08:35PM 45.1074 -165.1543 270° West 474 545 40,000  Level FlightAware Transoceanic
08:36PM 45.1071 -165.3409 270° West 474 545 40,000  Level FlightAware Transoceanic
08:37PM 45.1064 -165.5275 270° West 474 545 40,000  Level FlightAware Transoceanic
08:38PM 45.1009 -165.6523 270° West 475 547 40,000  Level FlightAware Transoceanic
08:39PM 45.0999 -165.8416 270° West 475 547 40,000  Level FlightAware Transoceanic
08:40PM 45.0986 -166.0309 269° West 475 547 40,000  Level FlightAware Transoceanic
08:41PM 45.0971 -166.2201 269° West 475 547 40,000  Level FlightAware Transoceanic
08:42PM 45.0952 -166.4093 269° West 475 547 40,000  Level FlightAware Transoceanic
08:43PM 45.0930 -166.5986 269° West 475 547 40,000  Level FlightAware Transoceanic
08:44PM 45.0905 -166.7878 269° West 475 547 40,000  Level FlightAware Transoceanic
08:45PM 45.0876 -166.9770 269° West 475 547 40,000  Level FlightAware Transoceanic
08:46PM 45.0845 -167.1662 269° West 475 547 40,000  Level FlightAware Transoceanic
08:46PM 45.0833 -167.1000 269° West 489 563 40,000  Level Oakland Oceanic (ODAPS)
08:47PM 45.0811 -167.3553 268° West 475 547 40,000  Level FlightAware Transoceanic
08:48PM 45.0773 -167.5444 268° West 475 547 40,000  Level FlightAware Transoceanic
08:49PM 45.0732 -167.7335 268° West 475 547 40,000  Level FlightAware Transoceanic
08:50PM 45.0688 -167.9226 268° West 475 547 40,000  Level FlightAware Transoceanic
08:51PM 45.0641 -168.1117 268° West 475 547 40,000  Level FlightAware Transoceanic
08:52PM 45.0588 -168.2610 268° West 489 563 40,000  Level FlightAware Transoceanic
08:53PM 45.0536 -168.4544 268° West 489 563 40,000  Level FlightAware Transoceanic
08:54PM 45.0480 -168.6477 268° West 489 563 40,000  Level FlightAware Transoceanic
08:55PM 45.0421 -168.8410 267° West 489 563 40,000  Level FlightAware Transoceanic
08:56PM 45.0359 -169.0343 267° West 489 563 40,000  Level FlightAware Transoceanic
08:57PM 45.0294 -169.2276 267° West 489 563 40,000  Level FlightAware Transoceanic
08:58PM 45.0225 -169.4207 267° West 489 563 40,000  Level FlightAware Transoceanic
08:59PM 45.0154 -169.6139 267° West 489 563 40,000  Level FlightAware Transoceanic
08:59PM 45.0167 -169.7667 264° West 482 555 40,000  Level Oakland Oceanic (ODAPS)
09:00PM 45.0078 -169.8070 267° West 489 563 40,000  Level FlightAware Transoceanic
09:01PM 45.0000 -170.0000 258° West 489 563 40,000  Level FlightAware Transoceanic
09:01PM 45.0000 -170.0000 258° West 478 550 40,000  Level Oakland Oceanic (ODAPS)
09:02PM 44.9721 -170.1842 258° West 489 563 40,000  Level FlightAware Transoceanic
09:03PM 44.9439 -170.3682 258° West 489 563 40,000  Level FlightAware Transoceanic
09:04PM 44.9154 -170.5520 258° West 489 563 40,000  Level FlightAware Transoceanic
09:05PM 44.8867 -170.7357 257° West 489 563 40,000  Level FlightAware Transoceanic
09:06PM 44.8576 -170.9191 257° West 482 555 40,000  Level FlightAware Transoceanic
09:07PM 44.8282 -171.1024 257° West 478 550 40,000  Level FlightAware Transoceanic
09:08PM 44.7985 -171.2855 257° West 478 550 40,000  Level FlightAware Transoceanic
09:09PM 44.7686 -171.4684 257° West 478 550 40,000  Level FlightAware Transoceanic
09:10PM 44.7383 -171.6511 257° West 478 550 40,000  Level FlightAware Transoceanic
09:11PM 44.7078 -171.8336 257° West 478 550 40,000  Level FlightAware Transoceanic
09:12PM 44.6770 -172.0159 257° West 478 550 40,000  Level FlightAware Transoceanic
09:13PM 44.6459 -172.1981 256° West 478 550 40,000  Level FlightAware Transoceanic
09:13PM 44.6333 -172.2833 256° West 469 540 40,000  Level Oakland Oceanic (ODAPS)
09:14PM 44.6145 -172.3800 256° West 478 550 40,000  Level FlightAware Transoceanic
09:15PM 44.5828 -172.5617 256° West 478 550 40,000  Level FlightAware Transoceanic
09:16PM 44.5508 -172.7433 256° West 478 550 40,000  Level FlightAware Transoceanic
09:17PM 44.5185 -172.9246 256° West 478 550 40,000  Level FlightAware Transoceanic
09:18PM 44.4860 -173.1057 256° West 478 550 40,000  Level FlightAware Transoceanic
09:19PM 44.4531 -173.2867 256° West 478 550 40,000  Level FlightAware Transoceanic
09:20PM 44.4416 -173.3598 256° West 469 540 40,000  Level FlightAware Transoceanic
09:21PM 44.4087 -173.5386 255° West 469 540 40,000  Level FlightAware Transoceanic
09:22PM 44.3755 -173.7171 255° West 469 540 40,000  Level FlightAware Transoceanic
09:23PM 44.3420 -173.8954 255° West 469 540 40,000  Level FlightAware Transoceanic
09:24PM 44.3082 -174.0735 255° West 469 540 40,000  Level FlightAware Transoceanic
09:25PM 44.2742 -174.2514 255° West 469 540 40,000  Level FlightAware Transoceanic
09:26PM 44.2398 -174.4291 255° West 469 540 40,000  Level FlightAware Transoceanic
09:27PM 44.2052 -174.6066 255° West 469 540 40,000  Level FlightAware Transoceanic
09:27PM 44.1833 -174.7167 255° West 463 533 40,000  Level Oakland Oceanic (ODAPS)
09:28PM 44.1704 -174.7839 255° West 469 540 40,000  Level FlightAware Transoceanic
09:29PM 44.1352 -174.9610 254° West 469 540 40,000  Level FlightAware Transoceanic
09:30PM 44.0998 -175.1378 254° West 469 540 40,000  Level FlightAware Transoceanic
09:31PM 44.0641 -175.3145 254° West 469 540 40,000  Level FlightAware Transoceanic
09:32PM 44.0282 -175.4909 254° West 469 540 40,000  Level FlightAware Transoceanic
09:33PM 43.9801 -175.7229 254° West 463 533 40,000  Level FlightAware Transoceanic
09:34PM 43.9454 -175.8900 254° West 463 533 40,000  Level FlightAware Transoceanic
09:35PM 43.9105 -176.0568 254° West 463 533 40,000  Level FlightAware Transoceanic
09:36PM 43.8753 -176.2234 254° West 463 533 40,000  Level FlightAware Transoceanic
09:37PM 43.8398 -176.3899 253° West 463 533 40,000  Level FlightAware Transoceanic
09:38PM 43.8041 -176.5561 253° West 463 533 40,000  Level FlightAware Transoceanic
09:39PM 43.7682 -176.7222 253° West 463 533 40,000  Level FlightAware Transoceanic
09:40PM 43.7320 -176.8880 253° West 463 533 40,000  Level FlightAware Transoceanic
09:41PM 43.6956 -177.0536 253° West 463 533 40,000  Level FlightAware Transoceanic
09:41PM 43.7000 -177.0667 253° West 453 521 40,000  Level Oakland Oceanic (ODAPS)
09:42PM 43.6590 -177.2191 253° West 463 533 40,000  Level FlightAware Transoceanic
09:43PM 43.6221 -177.3843 253° West 463 533 40,000  Level FlightAware Transoceanic
09:44PM 43.5850 -177.5494 253° West 463 533 40,000  Level FlightAware Transoceanic
09:45PM 43.5476 -177.7142 253° West 463 533 40,000  Level FlightAware Transoceanic
09:46PM 43.5100 -177.8788 252° West 463 533 40,000  Level FlightAware Transoceanic
09:47PM 43.4750 -178.0519 252° West 453 521 40,000  Level FlightAware Transoceanic
09:48PM 43.4367 -178.2154 252° West 453 521 40,000  Level FlightAware Transoceanic
09:49PM 43.3982 -178.3787 252° West 453 521 40,000  Level FlightAware Transoceanic
09:50PM 43.3594 -178.5418 252° West 453 521 40,000  Level FlightAware Transoceanic
09:51PM 43.3204 -178.7047 252° West 453 521 40,000  Level FlightAware Transoceanic
09:52PM 43.2811 -178.8673 252° West 453 521 40,000  Level FlightAware Transoceanic
09:53PM 43.2416 -179.0298 251° West 453 521 40,000  Level FlightAware Transoceanic
09:54PM 43.2019 -179.1920 251° West 453 521 40,000  Level FlightAware Transoceanic
09:55PM 43.1620 -179.3540 251° West 453 521 40,000  Level FlightAware Transoceanic
09:55PM 43.1667 -179.3333 251° West 453 521 40,000  Level Oakland Oceanic (ODAPS)
09:56PM 43.1218 -179.5158 251° West 453 521 40,000  Level FlightAware Transoceanic
09:57PM 43.0815 -179.6774 251° West 453 521 40,000  Level FlightAware Transoceanic
09:58PM 43.0408 -179.8388 251° West 453 521 40,000  Level FlightAware Transoceanic
09:59PM 43.0000 -180.0000 252° West 453 521 40,000  Level FlightAware Transoceanic
09:59PM 43.0000 180.0000 252° West 461 531 40,000  Level Oakland Oceanic (ODAPS)
10:00PM 42.9587 179.8315 251° West 453 521 40,000  Level FlightAware Transoceanic
10:01PM 42.9172 179.6632 251° West 453 521 40,000  Level FlightAware Transoceanic
10:02PM 42.8754 179.4951 251° West 453 521 40,000  Level FlightAware Transoceanic
10:03PM 42.8334 179.3273 251° West 453 521 40,000  Level FlightAware Transoceanic
10:04PM 42.7911 179.1596 251° West 453 521 40,000  Level FlightAware Transoceanic
10:05PM 42.7526 179.0082 251° West 461 531 40,000  Level FlightAware Transoceanic
10:06PM 42.7106 178.8437 251° West 461 531 40,000  Level FlightAware Transoceanic
10:07PM 42.6683 178.6794 251° West 461 531 40,000  Level FlightAware Transoceanic
10:08PM 42.6258 178.5153 251° West 461 531 40,000  Level FlightAware Transoceanic
10:09PM 42.5830 178.3514 250° West 461 531 40,000  Level FlightAware Transoceanic
10:09PM 42.6000 178.4167 250° West 463 533 40,000  Level Oakland Oceanic (ODAPS)
10:10PM 42.5400 178.1878 250° West 461 531 40,000  Level FlightAware Transoceanic
10:11PM 42.4968 178.0244 250° West 461 531 40,000  Level FlightAware Transoceanic
10:12PM 42.4533 177.8612 250° West 461 531 40,000  Level FlightAware Transoceanic
10:13PM 42.4096 177.6983 250° West 461 531 40,000  Level FlightAware Transoceanic
10:14PM 42.3657 177.5355 250° West 461 531 40,000  Level FlightAware Transoceanic
10:15PM 42.3371 177.4304 250° West 463 533 40,000  Level FlightAware Transoceanic
10:16PM 42.2925 177.2668 250° West 463 533 40,000  Level FlightAware Transoceanic
10:17PM 42.2476 177.1035 250° West 463 533 40,000  Level FlightAware Transoceanic
10:18PM 42.2025 176.9404 249° West 463 533 40,000  Level FlightAware Transoceanic
10:19PM 42.1572 176.7776 249° West 463 533 40,000  Level FlightAware Transoceanic
10:20PM 42.1117 176.6149 249° West 463 533 40,000  Level FlightAware Transoceanic
10:21PM 42.0659 176.4525 249° West 463 533 40,000  Level FlightAware Transoceanic
10:22PM 42.0199 176.2903 249° West 463 533 40,000  Level FlightAware Transoceanic
10:23PM 41.9736 176.1284 249° West 463 533 40,000  Level FlightAware Transoceanic
10:23PM 41.9833 176.1833 249° West 466 536 40,000  Level Oakland Oceanic (ODAPS)
10:24PM 41.9272 175.9667 249° West 463 533 40,000  Level FlightAware Transoceanic
10:25PM 41.8805 175.8053 249° West 463 533 40,000  Level FlightAware Transoceanic
10:26PM 41.8335 175.6440 249° West 463 533 40,000  Level FlightAware Transoceanic
10:27PM 41.7864 175.4830 248° West 463 533 40,000  Level FlightAware Transoceanic
10:28PM 41.7390 175.3223 248° West 463 533 40,000  Level FlightAware Transoceanic
10:29PM 41.7000 175.2079 248° West 466 536 40,000  Level FlightAware Transoceanic
10:30PM 41.6520 175.0462 248° West 466 536 40,000  Level FlightAware Transoceanic
10:31PM 41.6038 174.8847 248° West 466 536 40,000  Level FlightAware Transoceanic
10:32PM 41.5553 174.7235 248° West 466 536 40,000  Level FlightAware Transoceanic
10:33PM 41.5066 174.5625 248° West 466 536 40,000  Level FlightAware Transoceanic
10:34PM 41.4577 174.4017 248° West 466 536 40,000  Level FlightAware Transoceanic
10:35PM 41.4086 174.2412 248° West 466 536 40,000  Level FlightAware Transoceanic
10:36PM 41.3592 174.0809 248° West 466 536 40,000  Level FlightAware Transoceanic
10:36PM 41.3333 173.9667 247° West 460 529 40,000  Level Oakland Oceanic (ODAPS)
10:37PM 41.3096 173.9209 248° West 466 536 40,000  Level FlightAware Transoceanic
10:38PM 41.2598 173.7611 247° West 466 536 40,000  Level FlightAware Transoceanic
10:39PM 41.2098 173.6016 247° West 466 536 40,000  Level FlightAware Transoceanic
10:40PM 41.1595 173.4423 247° West 466 536 40,000  Level FlightAware Transoceanic
10:41PM 41.1091 173.2832 247° West 466 536 40,000  Level FlightAware Transoceanic
10:42PM 41.0584 173.1244 247° West 466 536 40,000  Level FlightAware Transoceanic
10:43PM 41.0378 173.0372 247° West 460 529 40,000  Level FlightAware Transoceanic
10:44PM 40.9878 172.8831 247° West 460 529 40,000  Level FlightAware Transoceanic
10:45PM 40.9376 172.7293 247° West 460 529 40,000  Level FlightAware Transoceanic
10:46PM 40.8872 172.5757 246° West 460 529 40,000  Level FlightAware Transoceanic
10:47PM 40.8366 172.4223 246° West 460 529 40,000  Level FlightAware Transoceanic
10:48PM 40.7858 172.2691 246° West 460 529 40,000  Level FlightAware Transoceanic
10:49PM 40.7348 172.1162 246° West 460 529 40,000  Level FlightAware Transoceanic
10:50PM 40.6836 171.9635 246° West 460 529 40,000  Level FlightAware Transoceanic
10:50PM 40.6333 171.8000 246° West 466 536 40,000  Level Oakland Oceanic (ODAPS)
10:51PM 40.6322 171.8111 246° West 460 529 40,000  Level FlightAware Transoceanic
10:52PM 40.5806 171.6588 246° West 460 529 40,000  Level FlightAware Transoceanic
10:53PM 40.5288 171.5069 246° West 460 529 40,000  Level FlightAware Transoceanic
10:54PM 40.4768 171.3551 246° West 460 529 40,000  Level FlightAware Transoceanic
10:55PM 40.4246 171.2036 246° West 460 529 40,000  Level FlightAware Transoceanic
10:56PM 40.3489 170.9776 245° Southwest 466 536 40,000  Level FlightAware Transoceanic
10:57PM 40.2913 170.8140 245° Southwest 466 536 40,000  Level FlightAware Transoceanic
10:58PM 40.2335 170.6506 245° Southwest 466 536 40,000  Level FlightAware Transoceanic
10:59PM 40.1755 170.4876 245° Southwest 466 536 40,000  Level FlightAware Transoceanic
11:00PM 40.1172 170.3248 245° Southwest 466 536 40,000  Level FlightAware Transoceanic
11:01PM 40.0587 170.1622 245° Southwest 466 536 40,000  Level FlightAware Transoceanic
11:02PM 40.0000 170.0000 259° West 466 536 40,000  Level FlightAware Transoceanic
11:02PM 40.0000 170.0000 259° West 462 532 40,000  Level Oakland Oceanic (ODAPS)
11:03PM 39.9747 169.8345 259° West 466 536 40,000  Level FlightAware Transoceanic
11:04PM 39.9491 169.6690 259° West 466 536 40,000  Level FlightAware Transoceanic
11:05PM 39.9233 169.5037 258° West 466 536 40,000  Level FlightAware Transoceanic
11:06PM 39.8972 169.3385 258° West 466 536 40,000  Level FlightAware Transoceanic
11:07PM 39.8709 169.1735 258° West 466 536 40,000  Level FlightAware Transoceanic
11:08PM 39.8470 169.0242 258° West 462 532 40,000  Level FlightAware Transoceanic
11:08PM 39.8667 169.1000 258° West 461 531 40,000  Level Oakland Oceanic (ODAPS)
11:09PM 39.8207 168.8620 258° West 462 532 40,000  Level FlightAware Transoceanic
11:10PM 39.7942 168.7000 258° West 462 532 40,000  Level FlightAware Transoceanic
11:11PM 39.7674 168.5380 258° West 462 532 40,000  Level FlightAware Transoceanic
11:12PM 39.7404 168.3762 258° West 462 532 40,000  Level FlightAware Transoceanic
11:13PM 39.7132 168.2145 258° West 462 532 40,000  Level FlightAware Transoceanic
11:14PM 39.7040 168.1203 257° West 461 531 40,000  Level FlightAware Transoceanic
11:15PM 39.6761 167.9575 257° West 461 531 40,000  Level FlightAware Transoceanic
11:16PM 39.6479 167.7948 257° West 461 531 40,000  Level FlightAware Transoceanic
11:17PM 39.6196 167.6322 257° West 461 531 40,000  Level FlightAware Transoceanic
11:18PM 39.5910 167.4698 257° West 461 531 40,000  Level FlightAware Transoceanic
11:18PM 39.5667 167.4000 257° West 460 529 40,000  Level Oakland Oceanic (ODAPS)
11:19PM 39.5622 167.3075 257° West 461 531 40,000  Level FlightAware Transoceanic
11:20PM 39.5331 167.1454 257° West 461 531 40,000  Level FlightAware Transoceanic
11:21PM 39.5039 166.9833 257° West 461 531 40,000  Level FlightAware Transoceanic
11:22PM 39.4744 166.8215 257° West 461 531 40,000  Level FlightAware Transoceanic
11:23PM 39.4447 166.6597 257° West 461 531 40,000  Level FlightAware Transoceanic
11:24PM 39.3930 166.4377 257° West 460 529 40,000  Level FlightAware Transoceanic
11:25PM 39.3633 166.2777 256° West 460 529 40,000  Level FlightAware Transoceanic
11:26PM 39.3333 166.1180 256° West 460 529 40,000  Level FlightAware Transoceanic
11:27PM 39.3032 165.9583 256° West 460 529 40,000  Level FlightAware Transoceanic
11:28PM 39.2728 165.7988 256° West 460 529 40,000  Level FlightAware Transoceanic
11:29PM 39.2422 165.6394 256° West 460 529 40,000  Level FlightAware Transoceanic
11:30PM 39.2114 165.4802 256° West 460 529 40,000  Level FlightAware Transoceanic
11:31PM 39.1804 165.3211 256° West 460 529 40,000  Level FlightAware Transoceanic
11:32PM 39.1492 165.1622 256° West 460 529 40,000  Level FlightAware Transoceanic
11:33PM 39.1177 165.0034 256° West 460 529 40,000  Level FlightAware Transoceanic
11:34PM 39.0860 164.8447 256° West 460 529 40,000  Level FlightAware Transoceanic
11:35PM 39.0542 164.6862 255° West 460 529 40,000  Level FlightAware Transoceanic
11:36PM 39.0221 164.5278 255° West 460 529 40,000  Level FlightAware Transoceanic
11:37PM 38.9897 164.3696 255° West 460 529 40,000  Level FlightAware Transoceanic
11:38PM 38.9572 164.2115 255° West 460 529 40,000  Level FlightAware Transoceanic
11:39PM 38.9245 164.0535 255° West 460 529 40,000  Level FlightAware Transoceanic
11:40PM 38.8915 163.8957 255° West 460 529 40,000  Level FlightAware Transoceanic
11:41PM 38.8584 163.7381 255° West 460 529 40,000  Level FlightAware Transoceanic
11:42PM 38.8250 163.5806 255° West 460 529 40,000  Level FlightAware Transoceanic
11:43PM 38.7914 163.4232 255° West 460 529 40,000  Level FlightAware Transoceanic
11:44PM 38.7576 163.2660 255° West 460 529 40,000  Level FlightAware Transoceanic
11:45PM 38.7236 163.1089 254° West 460 529 40,000  Level FlightAware Transoceanic
11:46PM 38.6894 162.9520 254° West 460 529 40,000  Level FlightAware Transoceanic
11:47PM 38.6550 162.7953 254° West 460 529 40,000  Level FlightAware Transoceanic
11:48PM 38.6203 162.6387 254° West 460 529 40,000  Level FlightAware Transoceanic
11:49PM 38.5855 162.4822 254° West 460 529 40,000  Level FlightAware Transoceanic
11:50PM 38.5504 162.3259 254° West 460 529 40,000  Level FlightAware Transoceanic
11:51PM 38.5152 162.1698 254° West 460 529 40,000  Level FlightAware Transoceanic
11:52PM 38.4797 162.0138 254° West 460 529 40,000  Level FlightAware Transoceanic
11:53PM 38.4440 161.8579 254° West 460 529 40,000  Level FlightAware Transoceanic
11:54PM 38.4081 161.7022 254° West 460 529 40,000  Level FlightAware Transoceanic
11:55PM 38.3721 161.5467 253° West 460 529 40,000  Level FlightAware Transoceanic
11:56PM 38.3358 161.3913 253° West 460 529 40,000  Level FlightAware Transoceanic
11:57PM 38.2993 161.2361 253° West 460 529 40,000  Level FlightAware Transoceanic
11:58PM 38.2626 161.0810 253° West 460 529 40,000  Level FlightAware Transoceanic
11:59PM 38.2257 160.9261 253° West 460 529 40,000  Level FlightAware Transoceanic
12:00AM 38.1886 160.7714 253° West 460 529 40,000  Level FlightAware Transoceanic
12:01AM 38.1513 160.6168 253° West 460 529 40,000  Level FlightAware Transoceanic
12:02AM 38.1138 160.4624 253° West 460 529 40,000  Level FlightAware Transoceanic
12:03AM 38.0760 160.3081 253° West 460 529 40,000  Level FlightAware Transoceanic
12:04AM 38.0381 160.1540 253° West 460 529 40,000  Level FlightAware Transoceanic
12:05AM 38.0000 160.0000 266° West 460 529 40,000  Level FlightAware Transoceanic
12:06AM 37.9905 159.8342 266° West 460 529 40,000  Level FlightAware Transoceanic
12:07AM 37.9807 159.6684 266° West 460 529 40,000  Level FlightAware Transoceanic
12:08AM 37.9707 159.5027 266° West 460 529 40,000  Level FlightAware Transoceanic
12:09AM 37.9605 159.3370 265° West 460 529 40,000  Level FlightAware Transoceanic
12:10AM 37.9501 159.1714 265° West 460 529 40,000  Level FlightAware Transoceanic
12:11AM 37.9394 159.0058 265° West 460 529 40,000  Level FlightAware Transoceanic
12:12AM 37.9285 158.8402 265° West 460 529 40,000  Level FlightAware Transoceanic
12:13AM 37.9173 158.6747 265° West 460 529 40,000  Level FlightAware Transoceanic
12:14AM 37.9059 158.5093 265° West 460 529 40,000  Level FlightAware Transoceanic
12:15AM 37.8943 158.3439 265° West 460 529 40,000  Level FlightAware Transoceanic
12:16AM 37.8825 158.1786 265° West 460 529 40,000  Level FlightAware Transoceanic
12:17AM 37.8704 158.0133 265° West 460 529 40,000  Level FlightAware Transoceanic
12:18AM 37.8581 157.8481 265° West 460 529 40,000  Level FlightAware Transoceanic
12:19AM 37.8456 157.6829 264° West 460 529 40,000  Level FlightAware Transoceanic
12:20AM 37.8328 157.5178 264° West 460 529 40,000  Level FlightAware Transoceanic
12:21AM 37.8198 157.3527 264° West 460 529 40,000  Level FlightAware Transoceanic
12:22AM 37.8066 157.1877 264° West 460 529 40,000  Level FlightAware Transoceanic
12:23AM 37.7931 157.0228 264° West 460 529 40,000  Level FlightAware Transoceanic
12:24AM 37.7794 156.8579 264° West 460 529 40,000  Level FlightAware Transoceanic
12:25AM 37.7655 156.6931 264° West 460 529 40,000  Level FlightAware Transoceanic
12:26AM 37.7514 156.5283 264° West 460 529 40,000  Level FlightAware Transoceanic
12:27AM 37.7370 156.3636 264° West 460 529 40,000  Level FlightAware Transoceanic
12:28AM 37.7224 156.1990 264° West 460 529 40,000  Level FlightAware Transoceanic
12:29AM 37.7075 156.0344 263° West 460 529 40,000  Level FlightAware Transoceanic
12:30AM 37.6925 155.8699 263° West 460 529 40,000  Level FlightAware Transoceanic
12:31AM 37.6772 155.7055 263° West 460 529 40,000  Level FlightAware Transoceanic
12:32AM 37.6617 155.5411 263° West 460 529 40,000  Level FlightAware Transoceanic
12:33AM 37.6459 155.3768 263° West 460 529 40,000  Level FlightAware Transoceanic
12:34AM 37.6299 155.2126 263° West 460 529 40,000  Level FlightAware Transoceanic
12:35AM 37.6137 155.0485 263° West 460 529 40,000  Level FlightAware Transoceanic
12:36AM 37.5973 154.8844 263° West 460 529 40,000  Level FlightAware Transoceanic
12:37AM 37.5807 154.7204 263° West 460 529 40,000  Level FlightAware Transoceanic
12:38AM 37.5638 154.5565 263° West 460 529 40,000  Level FlightAware Transoceanic
12:39AM 37.5466 154.3926 262° West 460 529 40,000  Level FlightAware Transoceanic
12:40AM 37.5293 154.2288 262° West 460 529 40,000  Level FlightAware Transoceanic
12:41AM 37.5117 154.0651 262° West 460 529 40,000  Level FlightAware Transoceanic
12:42AM 37.4940 153.9015 262° West 460 529 40,000  Level FlightAware Transoceanic
12:43AM 37.4759 153.7379 262° West 460 529 40,000  Level FlightAware Transoceanic
12:44AM 37.4577 153.5745 262° West 460 529 40,000  Level FlightAware Transoceanic
12:45AM 37.4393 153.4111 262° West 460 529 40,000  Level FlightAware Transoceanic
12:46AM 37.4206 153.2478 262° West 460 529 40,000  Level FlightAware Transoceanic
12:47AM 37.4016 153.0846 262° West 460 529 40,000  Level FlightAware Transoceanic
12:48AM 37.3825 152.9214 262° West 460 529 40,000  Level FlightAware Transoceanic
12:49AM 37.3632 152.7584 261° West 460 529 40,000  Level FlightAware Transoceanic
12:50AM 37.3436 152.5954 261° West 460 529 40,000  Level FlightAware Transoceanic
12:51AM 37.3237 152.4325 261° West 460 529 40,000  Level FlightAware Transoceanic
12:52AM 37.3037 152.2697 261° West 460 529 40,000  Level FlightAware Transoceanic
12:53AM 37.2835 152.1070 261° West 460 529 40,000  Level FlightAware Transoceanic
12:54AM 37.2630 151.9444 261° West 460 529 40,000  Level FlightAware Transoceanic
12:55AM 37.2423 151.7818 261° West 460 529 40,000  Level FlightAware Transoceanic
12:56AM 37.2214 151.6194 261° West 460 529 40,000  Level FlightAware Transoceanic
12:57AM 37.2002 151.4570 261° West 460 529 40,000  Level FlightAware Transoceanic
12:58AM 37.1789 151.2947 261° West 460 529 40,000  Level FlightAware Transoceanic
12:59AM 37.1573 151.1326 260° West 460 529 40,000  Level FlightAware Transoceanic
01:00AM 37.1355 150.9705 260° West 460 529 40,000  Level FlightAware Transoceanic
01:01AM 37.1134 150.8085 260° West 460 529 40,000  Level FlightAware Transoceanic
01:02AM 37.0912 150.6466 260° West 460 529 40,000  Level FlightAware Transoceanic
01:03AM 37.0687 150.4848 260° West 460 529 40,000  Level FlightAware Transoceanic
01:04AM 37.0460 150.3231 260° West 460 529 40,000  Level FlightAware Transoceanic
01:05AM 37.0231 150.1615 260° West 460 529 40,000  Level FlightAware Transoceanic
01:06AM 37.0008 150.0053 260° West  Level FlightAware Approximate
01:07AM 36.9782 149.8493 260° West  Level FlightAware Approximate
01:08AM 36.9897 149.8528 265° West  Level FlightAware Approximate
01:09AM 36.9784 149.6948 265° West  Level FlightAware Approximate
01:10AM 36.9669 149.5369 265° West  Level FlightAware Approximate
01:11AM 36.9552 149.3790 265° West  Level FlightAware Approximate
01:12AM 36.9432 149.2212 265° West  Level FlightAware Approximate
01:13AM 36.9311 149.0634 265° West  Level FlightAware Approximate
01:14AM 36.9188 148.9057 264° West  Level FlightAware Approximate
01:15AM 36.9062 148.7480 264° West  Level FlightAware Approximate
01:16AM 36.8935 148.5904 264° West  Level FlightAware Approximate
01:17AM 36.8764 148.4338 255° West  Level FlightAware Approximate
01:18AM 36.8439 148.2807 255° West  Level FlightAware Approximate
01:19AM 36.8113 148.1277 255° West  Level FlightAware Approximate
01:20AM 36.7785 147.9749 255° West  Level FlightAware Approximate
01:21AM 36.7454 147.8223 255° West  Level FlightAware Approximate
01:22AM 36.7122 147.6697 255° West  Level FlightAware Approximate
01:23AM 36.6788 147.5173 255° West  Level FlightAware Approximate
01:24AM 36.6452 147.3650 255° West  Level FlightAware Approximate
01:25AM 36.6114 147.2129 255° West  Level FlightAware Approximate
01:26AM 36.5774 147.0609 254° West  Level FlightAware Approximate
01:27AM 36.5432 146.9090 254° West  Level FlightAware Approximate
01:28AM 36.5088 146.7573 254° West  Level FlightAware Approximate
01:29AM 36.4743 146.6057 254° West  Level FlightAware Approximate
01:30AM 36.4395 146.4542 254° West  Level FlightAware Approximate
01:31AM 36.4045 146.3029 254° West  Level FlightAware Approximate
01:32AM 36.3599 146.1585 248° West  Level FlightAware Approximate
01:33AM 36.3135 146.0150 248° West  Level FlightAware Approximate
01:34AM 36.2670 145.8717 248° West  Level FlightAware Approximate
01:35AM 36.2202 145.7285 248° West  Level FlightAware Approximate
01:36AM 36.1791 145.5830 253° West  Level FlightAware Approximate
01:37AM 36.1449 145.4348 259° West  Level FlightAware Approximate
01:38AM 36.1206 145.2835 259° West  Level FlightAware Approximate
01:39AM 36.0962 145.1324 259° West  Level FlightAware Approximate
01:40AM 36.0715 144.9813 259° West  Level FlightAware Approximate
01:41AM 36.0467 144.8303 259° West  Level FlightAware Approximate
01:42AM 36.0217 144.6794 258° West  Level FlightAware Approximate
01:43AM 35.9965 144.5286 258° West  Level FlightAware Approximate
01:43AM 36.0580 144.7970 258° West 449 517 40,000  Level FlightAware
01:43AM 36.0440 144.7080 259° West 448 516 40,000  Level FlightAware
01:44AM 36.0320 144.6330 259° West 449 517 40,000 -480 Level FlightAware
01:44AM 36.0140 144.5300 258° West 448 516 39,400 -1,140 Descending FlightAware
01:45AM 35.9990 144.4450 258° West 447 514 38,700 -1,020 Descending FlightAware
01:45AM 35.9870 144.3810 257° West 445 512 38,300 -900 Descending FlightAware
01:46AM 35.9700 144.2840 258° West 439 505 37,700 -480 Descending FlightAware
01:47AM 35.9510 144.1850 257° West 439 505 37,700 -900 Level FlightAware
01:47AM 35.9340 144.0880 258° West 427 491 36,500 -1,380 Descending FlightAware
01:48AM 35.9250 144.0420 256° West 425 489 36,300 -180 Descending FlightAware
01:48AM 35.9110 143.9620 258° West 425 489 36,300 -1,320 Level FlightAware
01:49AM 35.8890 143.8470 257° West 421 484 34,800 -2,580 Descending FlightAware
01:50AM 35.8720 143.7630 256° West 435 501 33,500 -1,440 Descending FlightAware
01:50AM 35.8490 143.6440 257° West 444 511 32,700 -600 Descending FlightAware
01:51AM 35.8360 143.5730 257° West 444 511 32,700 -2,460 Level FlightAware
01:52AM 35.8270 143.4700 264° West 611 703 30,000 -3,540 Descending FlightAware
01:52AM 35.8140 143.3760 260° West 456 525 28,800 -1,740 Descending FlightAware
01:53AM 35.8020 143.2840 261° West 460 529 28,000 -720 Descending FlightAware
01:53AM 35.7910 143.2030 261° West 460 529 28,000  Level FlightAware
01:54AM 35.7770 143.1000 261° West 460 529 28,000  Level FlightAware
01:55AM 35.7620 142.9890 261° West 460 529 28,000  Level FlightAware
01:55AM 35.7510 142.9070 261° West 460 529 28,000  Level FlightAware
01:56AM 35.7410 142.8280 261° West 460 529 28,000 -120 Level FlightAware
01:57AM 35.7120 142.6460 259° West 455 524 27,900 -660 Descending FlightAware
01:57AM 35.7000 142.5660 260° West 428 493 27,100 -1,080 Descending FlightAware
01:58AM 35.6840 142.4540 260° West 414 476 26,400 -2,220 Descending FlightAware
01:59AM 35.6740 142.3860 260° West 380 437 24,000 -3,420 Descending FlightAware
01:59AM 35.6630 142.3060 260° West 373 429 22,700 -1,860 Descending FlightAware
02:00AM 35.6520 142.2320 260° West 370 426 21,800 -1,500 Descending FlightAware
02:01AM 35.6400 142.1520 260° West 366 421 20,800 -1,500 Descending FlightAware
02:01AM 35.6300 142.0810 260° West 361 415 19,900 -1,500 Descending FlightAware
02:02AM 35.6170 141.9970 259° West 353 406 18,900 -1,620 Descending FlightAware
02:03AM 35.6060 141.9230 260° West 343 395 17,900 -1,620 Descending FlightAware
02:03AM 35.5960 141.8550 260° West 336 387 17,000 -960 Descending FlightAware
02:04AM 35.6130 141.7570 282° West 330 380 16,500 -480 Descending FlightAware
02:05AM 35.6300 141.6940 288° West 322 371 16,300 -420 Descending FlightAware
02:05AM 35.6470 141.6290 288° West 313 360 16,000 -540 Descending FlightAware
02:06AM 35.6600 141.5810 288° West 313 360 15,700 -600 Descending FlightAware
02:06AM 35.6760 141.5180 287° West 311 358 15,300 -720 Descending FlightAware
02:07AM 35.6940 141.4530 289° West 309 356 14,900 -600 Descending FlightAware
02:08AM 35.7120 141.3860 288° West 305 351 14,600 -660 Descending FlightAware
02:08AM 35.7310 141.3140 288° West 290 334 14,000 -780 Descending FlightAware
02:09AM 35.7450 141.2630 289° West 276 318 13,600 -900 Descending FlightAware
02:10AM 35.7590 141.2090 288° West 274 315 13,000 -960 Descending FlightAware
02:10AM 35.7700 141.1670 288° West 270 311 12,500 -1,080 Descending FlightAware
02:11AM 35.7850 141.1080 287° West 264 304 11,800 -900 Descending FlightAware
02:11AM 35.7930 141.0780 288° West 265 305 11,500 -900 Descending FlightAware
02:12AM 35.8120 141.0060 288° West 262 302 10,800 -1,080 Descending FlightAware
02:12AM 35.8250 140.9560 288° West 258 297 10,300 -900 Descending FlightAware
02:13AM 35.8300 140.9280 282° West 250 288 10,000 -900 Descending FlightAware
02:13AM 35.8230 140.9030 251° West 238 274 9,700 -960 Descending FlightAware
02:13AM 35.8190 140.8980 225° Southwest 237 273 9,600 -1,140 Descending FlightAware
02:13AM 35.8100 140.8900 216° Southwest 238 274 9,400 -1,140 Descending FlightAware
02:14AM 35.7910 140.8760 211° Southwest 246 283 9,000 -1,260 Descending FlightAware
02:14AM 35.7710 140.8620 210° Southwest 240 276 8,600 -1,260 Descending FlightAware
02:14AM 35.7460 140.8440 210° Southwest 244 281 8,100 -960 Descending FlightAware
02:15AM 35.7260 140.8300 210° Southwest 246 283 7,900 -600 Descending FlightAware
02:15AM 35.7080 140.8170 210° Southwest 226 260 7,700 -660 Descending FlightAware
02:15AM 35.6930 140.8070 208° Southwest 224 258 7,500 -960 Descending FlightAware
02:16AM 35.6710 140.7910 211° Southwest 211 243 7,000 -1,260 Descending FlightAware
02:16AM 35.6490 140.7760 209° Southwest 209 241 6,500 -1,320 Descending FlightAware
02:17AM 35.6330 140.7640 211° Southwest 208 239 6,200 -900 Descending FlightAware
02:17AM 35.6130 140.7450 218° Southwest 205 236 5,800 -840 Descending FlightAware
02:17AM 35.6000 140.7260 230° Southwest 209 241 5,500 -1,080 Descending FlightAware
02:18AM 35.5790 140.6930 232° Southwest 209 241 4,900 -1,380 Descending FlightAware
02:18AM 35.5710 140.6800 233° Southwest 213 245 4,600 -1,200 Descending FlightAware
02:18AM 35.5650 140.6630 247° West 214 246 4,300 -720 Descending FlightAware
02:19AM 35.5570 140.6310 253° West 215 247 4,100 -300 Descending FlightAware
02:19AM 35.5520 140.6110 253° West 199 229 4,100  Level FlightAware
02:20AM 35.5450 140.5860 251° West 196 226 4,100  Level FlightAware
02:20AM 35.5420 140.5730 254° West 196 226 4,100  Level FlightAware
02:20AM 35.5420 140.5650 270° West 197 227 4,100  Level FlightAware
02:20AM 35.5440 140.5560 285° West 197 227 4,100  Level FlightAware
02:20AM 35.5520 140.5350 295° West 195 224 4,100  Level FlightAware
02:21AM 35.5590 140.5250 311° West 200 230 4,100 -240 Level FlightAware
02:21AM 35.5710 140.5140 323° Northwest 203 234 4,000 -900 Descending FlightAware
02:21AM 35.5900 140.5010 331° Northwest 196 226 3,500 -1,080 Descending FlightAware
02:22AM 35.6070 140.4890 330° Northwest 188 216 3,200 -900 Descending FlightAware
02:22AM 35.6220 140.4780 329° Northwest 181 208 2,900 -960 Descending FlightAware
02:22AM 35.6280 140.4740 332° Northwest 180 207 2,700 -960 Descending FlightAware
02:22AM 35.6450 140.4620 330° Northwest 175 201 2,400 -900 Descending FlightAware
02:23AM 35.6570 140.4530 329° Northwest 171 197 2,100 -900 Descending FlightAware
02:23AM 35.6720 140.4420 329° Northwest 161 185 1,800 -900 Descending FlightAware
02:23AM 35.6860 140.4320 330° Northwest 151 174 1,500 -780 Descending FlightAware
02:24AM 35.7010 140.4210 329° Northwest 149 171 1,200 -720 Descending FlightAware
02:24AM 35.7110 140.4140 330° Northwest 151 174 1,000 -840 Descending FlightAware
02:25AM 35.7240 140.4040 328° Northwest 150 173 700 -780 Descending FlightAware
02:25AM 35.7360 140.3960 332° Northwest 148 170 500 -600 Descending FlightAware
02:25AM 35.7410 140.3920 327° Northwest 147 169 400 -180 Descending FlightAware
02:25AM 35.7540 140.3830 331° Northwest 147 169 400  Level FlightAware